Time;durP1;ratioP1;P1;durP2;ratioP2;P2;SDS_P1;SDS_P2;PMS_P1;PMS_P2;Temp;Humidity;BMP_temperature;BMP_pressure;BME280_temperature;BME280_humidity;BME280_pressure;Samples;Min_cycle;Max_cycle;Signal;HPM_P1;HPM_P2
2023/12/18 00:00:23;;;;;;;13.85;7.90;;;1.20;99.90;;;0.24;100.00;99132.06;4987173;28;20454;-36
2023/12/18 00:02:49;;;;;;;12.85;8.15;;;1.20;99.90;;;0.24;100.00;99129.47;4995833;28;20030;-37
2023/12/18 00:05:14;;;;;;;16.67;9.20;;;1.20;99.90;;;0.21;100.00;99121.56;4996650;28;20045;-37
2023/12/18 00:07:40;;;;;;;15.15;8.52;;;1.20;99.90;;;0.23;100.00;99118.19;4998543;28;20353;-37
2023/12/18 00:10:06;;;;;;;13.93;8.20;;;1.20;99.90;;;0.23;100.00;99109.53;5001466;28;20029;-37
2023/12/18 00:12:32;;;;;;;16.42;9.05;;;1.20;99.90;;;0.24;100.00;99104.38;4987493;28;20035;-37
2023/12/18 00:14:58;;;;;;;13.93;8.35;;;1.20;99.90;;;0.18;100.00;99099.88;4998085;28;20034;-37
2023/12/18 00:17:23;;;;;;;13.73;8.18;;;1.10;99.90;;;0.19;100.00;99101.63;4997750;28;20030;-37
2023/12/18 00:19:51;;;;;;;14.13;8.35;;;1.20;99.90;;;0.18;100.00;99096.41;4998409;28;20050;-36
2023/12/18 00:22:17;;;;;;;14.35;8.50;;;1.20;99.90;;;0.17;100.00;99098.09;4994742;28;20060;-37
2023/12/18 00:24:42;;;;;;;15.70;8.63;;;1.10;99.90;;;0.15;100.00;99098.91;4999975;28;20029;-37
2023/12/18 00:27:08;;;;;;;14.10;8.68;;;1.10;99.90;;;0.03;100.00;99078.63;4998595;28;20477;-37
2023/12/18 00:29:34;;;;;;;14.48;8.55;;;1.10;99.90;;;0.09;100.00;99089.22;4997382;28;20060;-37
2023/12/18 00:31:59;;;;;;;17.23;9.00;;;1.00;99.90;;;0.10;100.00;99092.69;4996452;28;20148;-37
2023/12/18 00:34:25;;;;;;;15.75;8.25;;;1.00;99.90;;;0.08;100.00;99089.16;5003167;28;20038;-36
2023/12/18 00:36:51;;;;;;;13.10;7.82;;;1.00;99.90;;;0.06;100.00;99078.75;4999008;28;20048;-36
2023/12/18 00:39:16;;;;;;;13.18;8.00;;;1.00;99.90;;;0.06;100.00;99083.94;4997016;28;20038;-37
2023/12/18 00:41:43;;;;;;;16.60;8.18;;;1.00;99.90;;;0.02;100.00;99082.06;4999391;28;20076;-36
2023/12/18 00:44:08;;;;;;;14.40;7.85;;;1.00;99.90;;;0.01;100.00;99077.72;5002932;28;20164;-36
2023/12/18 00:46:34;;;;;;;14.50;8.13;;;1.00;99.90;;;-0.10;100.00;99061.78;5001354;28;20025;-36
2023/12/18 00:49:00;;;;;;;13.38;8.13;;;1.00;99.90;;;-0.01;100.00;99069.88;5000144;28;20925;-37
2023/12/18 00:51:25;;;;;;;17.35;8.02;;;1.00;99.90;;;0.00;100.00;99070.78;4992901;28;20161;-37
2023/12/18 00:53:51;;;;;;;13.88;7.68;;;1.00;99.90;;;-0.03;100.00;99074.13;4985620;28;20056;-37
2023/12/18 00:56:17;;;;;;;12.70;7.15;;;1.00;99.90;;;-0.04;100.00;99074.94;4987879;28;20124;-37
2023/12/18 00:58:43;;;;;;;11.88;7.88;;;1.00;99.90;;;-0.11;100.00;99069.53;4986805;28;20402;-37
2023/12/18 01:01:09;;;;;;;14.82;8.15;;;0.90;99.90;;;-0.08;100.00;99067.03;4988477;28;20068;-37
2023/12/18 01:03:35;;;;;;;12.20;7.85;;;0.90;99.90;;;-0.11;100.00;99079.91;4990987;28;20069;-37
2023/12/18 01:06:02;;;;;;;13.63;7.63;;;0.90;99.90;;;-0.14;100.00;99070.31;4991430;28;20705;-37
2023/12/18 01:08:28;;;;;;;15.73;7.97;;;0.80;99.90;;;-0.14;100.00;99074.59;4983984;28;20487;-37
2023/12/18 01:10:53;;;;;;;11.25;7.47;;;0.80;99.90;;;-0.30;100.00;99047.31;4979313;28;20281;-37
2023/12/18 01:13:19;;;;;;;11.73;7.13;;;0.80;99.90;;;-0.24;100.00;99063.94;4975713;28;20037;-37
2023/12/18 01:15:45;;;;;;;15.50;7.50;;;0.80;99.90;;;-0.23;100.00;99070.91;4975834;28;20288;-37
2023/12/18 01:18:10;;;;;;;12.07;6.93;;;0.80;99.90;;;-0.27;100.00;99075.91;4991668;28;20025;-37
2023/12/18 01:20:36;;;;;;;14.07;7.13;;;0.70;99.90;;;-0.25;100.00;99069.97;4990483;28;20116;-37
2023/12/18 01:23:02;;;;;;;15.65;7.00;;;0.70;99.90;;;-0.33;100.00;99050.69;4988129;28;20045;-38
2023/12/18 01:25:27;;;;;;;10.45;5.95;;;0.70;99.90;;;-0.18;100.00;99067.56;4989919;28;20041;-37
2023/12/18 01:27:53;;;;;;;9.88;5.90;;;0.80;99.90;;;-0.16;100.00;99060.72;4992915;28;20033;-37
2023/12/18 01:30:19;;;;;;;12.27;5.97;;;0.80;99.90;;;-0.16;100.00;99060.72;4991141;28;20045;-38
2023/12/18 01:32:44;;;;;;;7.95;5.20;;;0.80;99.90;;;-0.05;100.00;99060.25;4978021;28;20054;-37
2023/12/18 01:35:10;;;;;;;7.88;5.20;;;0.90;99.90;;;0.02;100.00;99065.59;4985532;28;20307;-37
2023/12/18 01:37:36;;;;;;;7.60;5.00;;;1.00;99.90;;;0.06;100.00;99067.50;4988546;28;20512;-37
2023/12/18 01:40:01;;;;;;;8.32;4.93;;;1.00;99.90;;;0.03;100.00;99068.25;4990737;28;20026;-37
2023/12/18 01:42:27;;;;;;;7.43;4.80;;;1.00;99.90;;;0.02;100.00;99063.00;4998136;28;20397;-38
2023/12/18 01:44:53;;;;;;;8.18;5.03;;;1.00;99.90;;;0.00;100.00;99052.63;5002727;28;20052;-37
2023/12/18 01:47:19;;;;;;;9.20;5.07;;;1.00;99.90;;;-0.02;100.00;99052.56;5001002;28;20405;-37
2023/12/18 01:49:45;;;;;;;7.93;5.43;;;1.00;99.90;;;-0.04;100.00;99055.91;4994148;28;20057;-37
2023/12/18 01:52:11;;;;;;;9.63;6.20;;;1.00;99.90;;;-0.09;100.00;99049.69;4995157;28;20034;-37
2023/12/18 01:54:37;;;;;;;8.27;5.20;;;0.90;99.90;;;-0.15;100.00;99033.97;4997842;28;20056;-37
2023/12/18 01:57:04;;;;;;;9.68;5.43;;;0.90;99.90;;;-0.14;100.00;99036.59;4998211;28;20546;-37
2023/12/18 01:59:32;;;;;;;10.68;5.95;;;0.80;99.90;;;-0.23;100.00;99021.63;4999075;28;20049;-37
2023/12/18 02:01:58;;;;;;;11.10;6.18;;;0.80;99.90;;;-0.18;100.00;99036.44;4995466;28;20061;-37
2023/12/18 02:04:24;;;;;;;10.25;6.20;;;0.80;99.90;;;-0.20;100.00;99036.38;4999346;28;20069;-37
2023/12/18 02:06:50;;;;;;;11.52;6.75;;;0.80;99.90;;;-0.23;100.00;99037.19;4997740;28;20425;-37
2023/12/18 02:09:16;;;;;;;9.98;6.20;;;0.70;99.90;;;-0.25;100.00;99030.16;5001502;28;20037;-37
2023/12/18 02:11:45;;;;;;;10.80;5.95;;;0.70;99.90;;;-0.27;100.00;99032.75;4996586;28;20065;-37
2023/12/18 02:14:12;;;;;;;10.35;5.93;;;0.70;99.90;;;-0.29;100.00;99029.19;4994826;28;20064;-37
2023/12/18 02:16:37;;;;;;;10.80;6.60;;;0.70;99.90;;;-0.27;100.00;99039.63;4997001;28;20042;-37
2023/12/18 02:19:03;;;;;;;10.18;5.65;;;0.70;99.90;;;-0.27;100.00;99029.25;5000921;28;20038;-37
2023/12/18 02:21:29;;;;;;;9.77;5.65;;;0.70;99.90;;;-0.27;100.00;99027.56;4999938;28;20033;-37
2023/12/18 02:23:55;;;;;;;10.98;5.60;;;0.70;99.90;;;-0.28;100.00;99032.69;4997877;28;20510;-37
2023/12/18 02:26:22;;;;;;;7.97;5.35;;;0.70;99.90;;;-0.25;100.00;99025.00;5002767;28;20044;-37
2023/12/18 02:28:47;;;;;;;11.02;5.78;;;0.70;99.90;;;-0.25;100.00;99031.06;4993339;28;20116;-37
2023/12/18 02:31:15;;;;;;;9.07;4.82;;;0.70;99.90;;;-0.24;100.00;99030.22;4997598;28;20033;-37
2023/12/18 02:33:41;;;;;;;8.85;5.28;;;0.70;99.90;;;-0.31;100.00;99015.31;4995511;28;20041;-37
2023/12/18 02:36:07;;;;;;;9.55;5.28;;;0.70;99.90;;;-0.23;100.00;99025.94;4999342;28;20397;-37
2023/12/18 02:38:33;;;;;;;7.90;4.57;;;0.70;99.90;;;-0.24;100.00;99022.44;4979048;28;20595;-37
2023/12/18 02:40:59;;;;;;;8.13;5.10;;;0.70;99.90;;;-0.23;100.00;99024.22;4998887;28;20042;-37
2023/12/18 02:43:25;;;;;;;8.80;4.85;;;0.70;99.90;;;-0.24;100.00;99017.25;5000643;28;20068;-37
2023/12/18 02:45:51;;;;;;;8.38;5.50;;;0.70;99.90;;;-0.28;100.00;99004.16;4992956;28;20022;-37
2023/12/18 02:48:17;;;;;;;8.60;5.30;;;0.70;99.90;;;-0.24;100.00;99008.59;4994015;28;20449;-37
2023/12/18 02:50:42;;;;;;;9.07;5.00;;;0.70;99.90;;;-0.25;100.00;98997.38;4992985;28;20509;-37
2023/12/18 02:53:08;;;;;;;9.13;5.47;;;0.70;99.90;;;-0.24;100.00;98995.66;4995646;28;20034;-37
2023/12/18 02:55:34;;;;;;;10.30;5.80;;;0.70;99.90;;;-0.25;100.00;98992.19;4999195;28;20569;-37
2023/12/18 02:58:00;;;;;;;9.50;5.15;;;0.70;99.90;;;-0.27;100.00;98991.25;4997826;28;20033;-37
2023/12/18 03:00:25;;;;;;;8.00;5.45;;;0.70;99.90;;;-0.26;100.00;98995.59;5001291;28;20034;-37
2023/12/18 03:02:51;;;;;;;10.95;6.10;;;0.70;99.90;;;-0.26;100.00;98989.53;5000689;28;20034;-37
2023/12/18 03:05:17;;;;;;;11.98;6.32;;;0.70;99.90;;;-0.24;100.00;98995.66;5001349;28;20029;-37
2023/12/18 03:07:42;;;;;;;9.18;5.80;;;0.70;99.90;;;-0.25;100.00;98993.88;4996473;28;20033;-37
2023/12/18 03:10:08;;;;;;;9.60;5.72;;;0.70;99.90;;;-0.25;100.00;98992.19;4993135;28;20088;-37
2023/12/18 03:12:34;;;;;;;8.23;5.38;;;0.70;99.90;;;-0.25;100.00;98987.00;4996543;28;20037;-37
2023/12/18 03:15:00;;;;;;;9.35;5.50;;;0.70;99.90;;;-0.25;100.00;98987.00;5001371;28;20068;-37
2023/12/18 03:17:26;;;;;;;9.88;6.10;;;0.70;99.90;;;-0.26;100.00;98987.81;4997697;28;20030;-37
2023/12/18 03:19:51;;;;;;;8.27;5.05;;;0.70;99.90;;;-0.24;100.00;98993.06;4994760;28;20041;-37
2023/12/18 03:22:17;;;;;;;9.13;5.55;;;0.70;99.90;;;-0.24;100.00;98993.94;4994312;28;20383;-37
2023/12/18 03:24:43;;;;;;;8.98;5.40;;;0.70;99.90;;;-0.24;100.00;98980.97;5000506;28;20030;-36
2023/12/18 03:27:09;;;;;;;7.57;4.93;;;0.70;99.90;;;-0.23;100.00;98987.03;5001949;28;20062;-36
2023/12/18 03:29:36;;;;;;;8.50;5.03;;;0.70;99.90;;;-0.25;100.00;98983.50;4996930;28;20049;-36
2023/12/18 03:32:03;;;;;;;8.80;4.63;;;0.70;99.90;;;-0.30;100.00;98975.59;4998920;28;20140;-36
2023/12/18 03:34:30;;;;;;;7.75;4.90;;;0.70;99.90;;;-0.30;100.00;98974.72;4996365;28;20108;-35
2023/12/18 03:36:55;;;;;;;7.45;4.43;;;0.70;99.90;;;-0.32;100.00;98977.25;4993706;28;20038;-35
2023/12/18 03:39:21;;;;;;;9.50;4.78;;;0.60;99.90;;;-0.34;100.00;98978.03;4995645;28;20394;-36
2023/12/18 03:41:47;;;;;;;8.38;4.53;;;0.60;99.90;;;-0.35;100.00;98974.56;4996317;28;20132;-36
2023/12/18 03:44:12;;;;;;;7.05;4.40;;;0.60;99.90;;;-0.36;100.00;98982.28;4999160;28;20570;-36
2023/12/18 03:46:38;;;;;;;7.75;4.60;;;0.60;99.90;;;-0.36;100.00;98984.88;4996787;28;20166;-36
2023/12/18 03:49:04;;;;;;;6.57;4.07;;;0.60;99.90;;;-0.37;100.00;98968.44;4995955;28;20103;-36
2023/12/18 03:51:29;;;;;;;6.93;4.15;;;0.60;99.90;;;-0.46;100.00;98958.66;4994669;28;20031;-36
2023/12/18 03:53:55;;;;;;;6.10;3.90;;;0.60;99.90;;;-0.40;100.00;98973.53;4990964;28;20033;-36
2023/12/18 03:56:21;;;;;;;9.13;4.03;;;0.60;99.90;;;-0.42;100.00;98968.28;4999089;28;20025;-36
2023/12/18 03:58:47;;;;;;;8.00;4.20;;;0.60;99.90;;;-0.43;100.00;98976.91;4975776;28;20025;-36
2023/12/18 04:01:12;;;;;;;8.13;3.97;;;0.50;99.90;;;-0.42;100.00;98977.78;4993614;28;22771;-36
2023/12/18 04:03:38;;;;;;;5.60;3.97;;;0.50;99.90;;;-0.42;100.00;98975.19;4995195;28;20029;-36
2023/12/18 04:06:08;;;;;;;7.82;3.92;;;0.50;99.90;;;-0.41;100.00;98966.59;4989302;28;20096;-36
2023/12/18 04:08:34;;;;;;;6.68;4.43;;;0.50;99.90;;;-0.49;100.00;98955.09;4997388;28;20100;-35
2023/12/18 04:10:59;;;;;;;8.30;4.50;;;0.50;99.90;;;-0.41;100.00;98969.19;4997489;28;20049;-36
2023/12/18 04:13:25;;;;;;;8.05;4.70;;;0.50;99.90;;;-0.42;100.00;98976.06;4992740;28;20042;-36
2023/12/18 04:15:51;;;;;;;7.47;4.43;;;0.50;99.90;;;-0.43;100.00;98973.44;5001299;28;20698;-36
2023/12/18 04:18:17;;;;;;;7.78;4.40;;;0.50;99.90;;;-0.44;100.00;98972.56;4998177;28;20029;-36
2023/12/18 04:20:42;;;;;;;7.30;4.75;;;0.50;99.90;;;-0.45;100.00;98972.50;5000639;28;20076;-36
2023/12/18 04:23:08;;;;;;;9.18;4.70;;;0.50;99.90;;;-0.44;100.00;98971.69;5002807;28;20040;-36
2023/12/18 04:25:34;;;;;;;7.80;4.38;;;0.50;99.90;;;-0.52;100.00;98961.06;4999843;28;20053;-36
2023/12/18 04:28:00;;;;;;;6.78;4.40;;;0.50;99.90;;;-0.46;100.00;98968.16;5005085;28;21357;-36
2023/12/18 04:30:25;;;;;;;7.82;4.45;;;0.50;99.90;;;-0.47;100.00;98966.41;4998121;28;20076;-36
2023/12/18 04:32:51;;;;;;;7.25;4.25;;;0.50;99.90;;;-0.58;100.00;98977.28;4997082;28;20038;-36
2023/12/18 04:35:17;;;;;;;5.70;4.25;;;0.40;99.90;;;-0.84;100.00;98947.06;4995728;28;20096;-36
2023/12/18 04:37:42;;;;;;;6.75;3.90;;;0.30;99.90;;;-0.77;100.00;98972.34;5002545;28;20030;-36
2023/12/18 04:40:10;;;;;;;8.88;4.43;;;0.40;99.90;;;-0.88;100.00;98981.44;4998844;28;20517;-36
2023/12/18 04:42:35;;;;;;;7.13;4.10;;;0.20;99.90;;;-0.89;100.00;98982.31;4998759;28;20041;-36
2023/12/18 04:45:01;;;;;;;10.20;4.43;;;0.10;99.90;;;-0.93;100.00;98964.88;4999970;28;20038;-36
2023/12/18 04:47:26;;;;;;;6.53;3.92;;;0.10;99.90;;;-0.94;100.00;98970.91;5000086;28;20042;-36
2023/12/18 04:49:52;;;;;;;6.32;3.70;;;0.00;99.90;;;-0.96;100.00;98976.91;4999746;28;20030;-36
2023/12/18 04:52:18;;;;;;;6.30;3.95;;;0.10;99.90;;;-1.00;100.00;98981.94;4998522;28;20037;-36
2023/12/18 04:54:43;;;;;;;6.68;3.70;;;0.00;99.90;;;-1.01;100.00;98987.94;4996294;28;20372;-36
2023/12/18 04:57:09;;;;;;;7.40;3.63;;;0.00;99.90;;;-1.04;100.00;98985.22;4991323;28;20030;-36
2023/12/18 04:59:35;;;;;;;5.55;3.45;;;0.00;99.90;;;-1.02;100.00;98989.66;4999302;28;20091;-36
2023/12/18 05:02:01;;;;;;;6.18;3.53;;;0.00;99.90;;;-1.03;100.00;98984.41;4998466;28;20046;-36
2023/12/18 05:04:26;;;;;;;4.88;3.33;;;-0.10;99.90;;;-1.07;100.00;98979.97;4994639;28;20029;-36
2023/12/18 05:06:52;;;;;;;5.68;3.35;;;-0.10;99.90;;;-1.07;100.00;98988.59;4999261;28;20363;-36
2023/12/18 05:09:18;;;;;;;5.63;3.53;;;-0.10;99.90;;;-1.03;100.00;98989.59;4993212;28;20041;-36
2023/12/18 05:11:44;;;;;;;5.65;3.63;;;0.00;99.90;;;-1.10;100.00;98972.94;4989368;28;20394;-36
2023/12/18 05:14:09;;;;;;;6.65;3.70;;;-0.10;99.90;;;-1.02;100.00;98989.66;4989178;28;20172;-36
2023/12/18 05:16:35;;;;;;;6.63;3.80;;;0.00;99.90;;;-1.00;100.00;98990.56;4998255;28;20029;-36
2023/12/18 05:19:01;;;;;;;5.03;3.33;;;0.00;99.90;;;-1.00;100.00;98979.34;4999687;28;20037;-36
2023/12/18 05:21:26;;;;;;;6.20;3.42;;;0.00;99.90;;;-0.99;100.00;98975.91;4994595;28;20037;-36
2023/12/18 05:23:54;;;;;;;5.43;3.40;;;0.00;99.90;;;-0.98;100.00;98980.28;4998155;28;20076;-36
2023/12/18 05:26:19;;;;;;;5.78;3.28;;;0.00;99.90;;;-0.96;100.00;98973.44;5001010;28;21222;-37
2023/12/18 05:28:45;;;;;;;8.05;3.70;;;0.00;99.90;;;-0.97;100.00;98971.66;4993647;28;20031;-37
2023/12/18 05:31:11;;;;;;;6.25;4.13;;;0.00;99.90;;;-1.01;100.00;98962.03;4995541;28;20038;-37
2023/12/18 05:33:37;;;;;;;7.70;4.55;;;0.00;99.90;;;-0.96;100.00;98976.91;4994240;28;20045;-37
2023/12/18 05:36:04;;;;;;;8.98;5.07;;;0.00;99.90;;;-0.94;100.00;98974.38;4989056;28;20044;-37
2023/12/18 05:38:29;;;;;;;8.85;5.88;;;0.00;99.90;;;-0.94;100.00;98964.00;4994149;28;20079;-37
2023/12/18 05:40:55;;;;;;;9.43;5.78;;;0.10;99.90;;;-0.96;100.00;98957.91;4999359;28;20022;-37
2023/12/18 05:43:20;;;;;;;11.55;6.45;;;0.00;99.90;;;-0.96;100.00;98965.66;4999352;28;20038;-37
2023/12/18 05:45:46;;;;;;;10.80;6.05;;;0.00;99.90;;;-1.01;100.00;98956.84;4993713;28;20569;-37
2023/12/18 05:48:12;;;;;;;10.07;6.57;;;0.00;99.90;;;-1.00;100.00;98962.09;4993980;28;20036;-37
2023/12/18 05:50:38;;;;;;;11.52;6.30;;;0.00;99.90;;;-0.99;100.00;98955.19;4997124;28;20033;-37
2023/12/18 05:53:04;;;;;;;14.05;6.97;;;0.00;99.90;;;-1.00;100.00;98962.09;4999717;28;20034;-37
2023/12/18 05:55:29;;;;;;;13.27;6.53;;;0.00;99.90;;;-0.99;100.00;98965.56;4995750;28;20449;-36
2023/12/18 05:57:55;;;;;;;10.27;6.80;;;0.00;99.90;;;-1.00;100.00;98966.41;4988878;28;20581;-37
2023/12/18 06:00:21;;;;;;;10.77;6.60;;;0.00;99.90;;;-1.01;100.00;98960.31;4991528;28;20433;-37
2023/12/18 06:02:47;;;;;;;11.23;6.32;;;0.00;99.90;;;-1.06;100.00;98963.59;4987552;28;20026;-37
2023/12/18 06:05:12;;;;;;;9.10;6.10;;;0.00;99.90;;;-1.02;100.00;98971.53;4990621;28;20065;-37
2023/12/18 06:07:40;;;;;;;8.70;5.70;;;0.00;99.90;;;-1.04;100.00;98977.47;4999523;28;20158;-37
2023/12/18 06:10:08;;;;;;;10.57;5.90;;;-0.10;99.90;;;-1.09;100.00;98968.69;4988291;28;20497;-37
2023/12/18 06:12:34;;;;;;;8.38;5.30;;;-0.10;99.90;;;-1.06;100.00;98979.13;4993778;28;20088;-37
2023/12/18 06:15:00;;;;;;;9.30;5.47;;;-0.10;99.90;;;-1.15;100.00;98958.97;4988998;28;20087;-37
2023/12/18 06:17:26;;;;;;;10.52;5.30;;;-0.10;99.90;;;-1.02;100.00;98970.66;4995147;28;20030;-37
2023/12/18 06:19:52;;;;;;;9.70;5.13;;;-0.10;99.90;;;-0.97;100.00;98971.66;4997585;28;20489;-37
2023/12/18 06:22:17;;;;;;;8.02;4.78;;;0.00;99.90;;;-0.94;100.00;98978.66;4985882;28;20048;-37
2023/12/18 06:24:43;;;;;;;9.68;5.65;;;0.00;99.90;;;-0.95;100.00;98977.81;4989999;28;20521;-37
2023/12/18 06:27:09;;;;;;;8.35;5.25;;;0.00;99.90;;;-0.90;100.00;98977.94;4988102;28;20026;-36
2023/12/18 06:29:34;;;;;;;8.90;5.18;;;0.10;99.90;;;-0.88;100.00;98981.44;4989373;28;20068;-37
2023/12/18 06:32:00;;;;;;;9.43;5.30;;;0.10;99.90;;;-0.88;100.00;98984.94;4992451;28;20489;-37
2023/12/18 06:34:26;;;;;;;10.40;5.40;;;0.10;99.90;;;-0.88;100.00;98991.81;4996910;28;21078;-37
2023/12/18 06:36:51;;;;;;;10.13;6.25;;;0.10;99.90;;;-0.95;100.00;98990.75;5001846;28;20022;-37
2023/12/18 06:39:17;;;;;;;9.43;5.70;;;0.00;99.90;;;-1.00;100.00;98987.13;4995404;28;20552;-37
2023/12/18 06:41:43;;;;;;;7.53;5.32;;;0.00;99.90;;;-1.04;100.00;98988.72;4992737;28;20101;-37
2023/12/18 06:44:08;;;;;;;8.65;5.30;;;0.00;99.90;;;-1.06;100.00;98995.56;4989864;28;20457;-37
2023/12/18 06:46:34;;;;;;;11.00;6.10;;;-0.10;99.90;;;-1.09;100.00;99003.22;4997585;28;20025;-37
2023/12/18 06:49:03;;;;;;;10.45;5.80;;;-0.10;99.90;;;-1.11;100.00;98999.69;4995817;28;20472;-37
2023/12/18 06:51:29;;;;;;;10.35;6.18;;;-0.10;99.90;;;-1.10;100.00;98998.84;5002277;28;20034;-37
2023/12/18 06:53:55;;;;;;;9.68;5.97;;;-0.10;99.90;;;-1.12;100.00;99003.09;4991621;28;20040;-37
2023/12/18 06:56:20;;;;;;;10.25;5.90;;;-0.10;99.90;;;-1.14;100.00;99001.28;4988981;28;20040;-37
2023/12/18 06:58:46;;;;;;;12.38;6.75;;;-0.20;99.90;;;-1.18;100.00;99006.34;5000315;28;20029;-37
2023/12/18 07:01:15;;;;;;;11.55;6.05;;;-0.20;99.90;;;-1.18;100.00;99010.66;4991840;28;20037;-37
2023/12/18 07:03:41;;;;;;;12.13;6.72;;;-0.20;99.90;;;-1.19;100.00;99002.00;4982318;28;20030;-37
2023/12/18 07:06:07;;;;;;;10.40;6.18;;;-0.20;99.90;;;-1.18;100.00;99006.34;4994400;28;20029;-37
2023/12/18 07:08:33;;;;;;;10.45;5.85;;;-0.20;99.90;;;-1.21;100.00;98997.59;5006815;28;20037;-37
2023/12/18 07:10:59;;;;;;;11.45;6.45;;;-0.20;99.90;;;-1.24;100.00;99000.97;4995162;28;20034;-37
2023/12/18 07:13:25;;;;;;;12.50;5.97;;;-0.20;99.90;;;-1.24;100.00;99010.44;4997558;28;20037;-37
2023/12/18 07:15:50;;;;;;;13.35;6.40;;;-0.20;99.90;;;-1.26;100.00;99012.09;4997452;28;20041;-37
2023/12/18 07:18:17;;;;;;;10.10;5.97;;;-0.30;99.90;;;-1.26;100.00;99009.50;4995051;28;20200;-37
2023/12/18 07:20:44;;;;;;;10.25;6.35;;;-0.30;99.90;;;-1.24;100.00;99011.34;4994013;28;20037;-37
2023/12/18 07:23:10;;;;;;;9.73;5.88;;;-0.30;99.90;;;-1.24;100.00;99000.97;4996308;28;20079;-37
2023/12/18 07:25:36;;;;;;;10.00;6.35;;;-0.20;99.90;;;-1.22;100.00;99003.59;4993804;28;20040;-37
2023/12/18 07:28:04;;;;;;;9.93;6.03;;;-0.30;99.90;;;-1.22;100.00;99006.19;4984803;28;20038;-37
2023/12/18 07:30:30;;;;;;;11.20;6.60;;;-0.20;99.90;;;-1.22;100.00;99007.09;4988851;28;20494;-37
2023/12/18 07:32:56;;;;;;;10.07;5.70;;;-0.30;99.90;;;-1.13;100.00;99010.81;4990432;28;20036;-37
2023/12/18 07:35:21;;;;;;;11.77;5.47;;;-0.20;99.90;;;-1.08;100.00;99015.31;4993216;28;20127;-37
2023/12/18 07:37:47;;;;;;;11.65;5.93;;;-0.10;99.90;;;-1.09;100.00;99026.53;4997052;28;20270;-37
2023/12/18 07:40:13;;;;;;;8.07;5.47;;;-0.10;99.90;;;-1.10;100.00;99024.75;5002356;28;20045;-37
2023/12/18 07:42:38;;;;;;;10.25;5.85;;;-0.10;99.90;;;-1.13;100.00;99034.09;4995480;28;20390;-37
2023/12/18 07:45:05;;;;;;;7.47;4.85;;;-0.10;99.90;;;-1.15;100.00;99036.63;4995938;28;20061;-37
2023/12/18 07:47:30;;;;;;;8.02;5.28;;;-0.20;99.90;;;-1.12;100.00;99036.75;4994037;28;20537;-37
2023/12/18 07:49:56;;;;;;;8.07;5.22;;;-0.10;99.90;;;-1.12;100.00;99041.06;4994724;28;20033;-37
2023/12/18 07:52:22;;;;;;;8.75;5.03;;;-0.10;99.90;;;-1.09;100.00;99042.06;5001826;28;20068;-37
2023/12/18 07:54:47;;;;;;;9.80;5.53;;;-0.10;99.90;;;-1.06;100.00;99052.53;4997321;28;20038;-37
2023/12/18 07:57:13;;;;;;;10.80;5.63;;;0.00;99.90;;;-1.05;100.00;99048.22;5002112;28;20046;-36
2023/12/18 07:59:42;;;;;;;10.73;5.40;;;0.00;99.90;;;-1.05;100.00;99043.03;4996522;28;20033;-36
2023/12/18 08:02:08;;;;;;;9.35;5.32;;;0.00;99.90;;;-1.02;100.00;99046.63;4999477;28;20085;-36
2023/12/18 08:04:35;;;;;;;10.35;5.70;;;0.00;99.90;;;-1.01;100.00;99043.19;5012078;28;20041;-36
2023/12/18 08:07:01;;;;;;;8.32;5.13;;;0.00;99.90;;;-0.96;100.00;99039.06;4993675;28;20068;-36
2023/12/18 08:09:27;;;;;;;9.20;5.43;;;0.00;99.90;;;-0.93;100.00;99032.22;4986638;28;20034;-36
2023/12/18 08:11:54;;;;;;;12.88;5.85;;;0.10;99.90;;;-0.97;100.00;99024.38;4989809;28;20077;-36
2023/12/18 08:14:19;;;;;;;12.02;5.10;;;0.20;99.90;;;-0.81;100.00;99043.91;4986589;28;20161;-36
2023/12/18 08:16:45;;;;;;;14.38;5.55;;;0.20;99.90;;;-0.76;100.00;99044.06;4991750;28;20119;-36
2023/12/18 08:19:11;;;;;;;9.95;5.68;;;0.20;99.90;;;-0.74;100.00;99047.56;4994650;28;20029;-35
2023/12/18 08:21:36;;;;;;;10.77;5.65;;;0.20;99.90;;;-0.70;100.00;99036.50;4987496;28;20582;-35
2023/12/18 08:24:02;;;;;;;12.77;5.20;;;0.30;99.90;;;-0.65;100.00;99029.75;4993560;28;20032;-37
2023/12/18 08:26:28;;;;;;;7.80;5.53;;;0.30;99.90;;;-0.59;100.00;99029.09;4997835;28;20065;-36
2023/12/18 08:28:54;;;;;;;9.15;5.18;;;0.40;99.90;;;-0.53;100.00;99018.03;4990021;28;20585;-36
2023/12/18 08:31:20;;;;;;;8.48;5.32;;;0.40;99.90;;;-0.50;100.00;99016.44;5001214;28;20779;-36
2023/12/18 08:33:45;;;;;;;8.68;5.38;;;0.50;99.90;;;-0.39;100.00;99019.38;4988993;28;20068;-36
2023/12/18 08:36:11;;;;;;;10.90;5.43;;;0.60;99.90;;;-0.34;100.00;99012.63;4988144;28;20042;-36
2023/12/18 08:38:37;;;;;;;9.55;5.95;;;0.70;99.90;;;-0.26;100.00;99024.13;4997681;28;20560;-36
2023/12/18 08:41:02;;;;;;;10.27;6.90;;;0.70;99.90;;;-0.18;100.00;99020.88;4993072;28;24290;-36
2023/12/18 08:43:28;;;;;;;12.55;7.32;;;0.80;99.90;;;-0.09;100.00;99015.97;4996256;28;20038;-36
2023/12/18 08:45:55;;;;;;;11.13;6.82;;;0.90;99.90;;;-0.10;100.00;98998.69;4992033;28;20149;-36
2023/12/18 08:48:21;;;;;;;14.52;7.93;;;0.90;99.90;;;0.02;100.00;99017.22;4993637;28;20045;-36
2023/12/18 08:50:46;;;;;;;12.77;7.32;;;1.00;99.90;;;0.10;100.00;99018.31;4994798;28;20029;-36
2023/12/18 08:53:12;;;;;;;13.43;7.78;;;1.10;99.90;;;0.15;100.00;99018.47;4999725;28;20382;-36
2023/12/18 08:55:39;;;;;;;14.38;7.00;;;1.10;99.90;;;0.21;100.00;99017.78;5005423;28;20057;-36
2023/12/18 08:58:11;;;;;;;12.30;7.28;;;1.10;99.90;;;0.14;100.00;99002.03;4995961;28;24139;-36
2023/12/18 09:00:37;;;;;;;12.93;7.32;;;1.20;99.90;;;0.27;100.00;99018.84;5002355;28;20421;-36
2023/12/18 09:03:04;;;;;;;13.48;7.82;;;1.30;99.90;;;0.34;100.00;99025.97;5006636;28;20128;-36
2023/12/18 09:05:31;;;;;;;11.73;7.28;;;1.30;99.90;;;0.41;100.00;99034.81;5002048;28;20036;-36
2023/12/18 09:07:56;;;;;;;13.40;7.28;;;1.30;99.90;;;0.47;100.00;99029.81;4998607;28;20752;-36
2023/12/18 09:10:24;;;;;;;12.38;6.90;;;1.40;99.90;;;0.51;100.00;99026.47;4995245;28;20044;-36
2023/12/18 09:12:53;;;;;;;12.57;7.18;;;1.40;99.90;;;0.51;100.00;99023.00;5000484;28;20383;-36
2023/12/18 09:15:19;;;;;;;12.60;7.25;;;1.50;99.90;;;0.62;100.00;99029.38;4996167;28;20060;-36
2023/12/18 09:17:45;;;;;;;11.20;7.13;;;1.60;99.90;;;0.66;100.00;99023.41;4998968;28;20580;-36
2023/12/18 09:20:11;;;;;;;12.45;7.38;;;1.60;99.90;;;0.72;100.00;99030.53;4995843;28;20049;-36
2023/12/18 09:22:37;;;;;;;11.20;6.28;;;1.60;99.90;;;0.77;100.00;99028.91;4997441;28;20636;-36
2023/12/18 09:25:03;;;;;;;12.65;6.95;;;1.70;99.90;;;0.78;100.00;99019.44;5002445;28;20099;-36
2023/12/18 09:27:30;;;;;;;10.50;6.82;;;1.70;99.90;;;0.85;100.00;99014.44;5000379;28;20121;-36
2023/12/18 09:29:55;;;;;;;11.50;6.90;;;1.80;99.90;;;0.90;100.00;99007.66;5001013;28;20025;-36
2023/12/18 09:32:21;;;;;;;12.27;6.57;;;1.80;99.90;;;0.96;100.00;99009.53;5001652;28;20029;-36
2023/12/18 09:34:47;;;;;;;12.75;6.18;;;1.90;99.90;;;1.02;100.00;99003.63;5001469;28;20658;-36
2023/12/18 09:37:13;;;;;;;10.57;6.72;;;1.90;99.90;;;1.01;100.00;98983.69;5001085;28;20333;-36
2023/12/18 09:39:42;;;;;;;11.52;6.70;;;2.00;99.90;;;1.14;100.00;98994.41;5000972;28;20746;-36
2023/12/18 09:42:11;;;;;;;10.98;7.00;;;2.00;99.90;;;1.20;100.00;98991.09;5001502;28;20049;-36
2023/12/18 09:44:37;;;;;;;12.73;6.88;;;2.10;99.90;;;1.12;100.00;98964.91;5003498;28;20803;-37
2023/12/18 09:47:04;;;;;;;12.63;7.05;;;2.10;99.90;;;1.23;100.00;98973.00;5000210;28;20486;-36
2023/12/18 09:49:30;;;;;;;12.32;7.10;;;2.20;99.90;;;1.25;100.00;98970.44;5004467;28;20037;-36
2023/12/18 09:52:17;;;;;;;15.00;6.93;;;2.20;99.90;;;1.38;100.00;98976.81;5004672;28;20087;-36
2023/12/18 09:54:43;;;;;;;10.95;6.82;;;2.30;99.90;;;1.30;100.00;98955.84;5008143;28;20406;-36
2023/12/18 09:57:13;;;;;;;12.18;6.60;;;2.30;99.90;;;1.51;100.00;98978.91;5003526;28;20367;-35
2023/12/18 09:59:39;;;;;;;11.10;6.85;;;2.40;99.90;;;1.59;100.00;98984.28;5019269;28;20037;-38
2023/12/18 10:02:05;;;;;;;13.07;6.80;;;2.50;99.90;;;1.69;100.00;98983.66;5003167;28;20038;-36
2023/12/18 10:04:31;;;;;;;15.43;6.85;;;2.60;99.90;;;1.77;100.00;98982.09;4997815;28;20068;-36
2023/12/18 10:06:57;;;;;;;12.88;6.72;;;2.60;99.90;;;1.80;100.00;98976.09;5003800;28;20056;-36
2023/12/18 10:09:23;;;;;;;11.40;6.50;;;2.70;99.90;;;1.91;100.00;98985.03;5001661;28;20124;-36